createdAt,value
2022-07-29T00:00:09.833Z,18.17
2022-07-29T00:00:19.590Z,18.17
2022-07-29T00:00:29.588Z,18.17
2022-07-29T00:00:39.750Z,18.17
2022-07-29T00:00:51.006Z,18.16
2022-07-29T00:01:01.532Z,18.16
2022-07-29T00:01:19.428Z,18.15
2022-07-29T00:01:19.923Z,18.11
2022-07-29T00:01:30.050Z,18.14
2022-07-29T00:01:39.571Z,18.14
2022-07-29T00:01:49.652Z,18.14
2022-07-29T00:01:59.628Z,18.14
2022-07-29T00:02:09.581Z,18.14
2022-07-29T00:02:20.192Z,18.14
2022-07-29T00:02:29.656Z,18.13
2022-07-29T00:02:43.934Z,18.13
2022-07-29T00:02:50.432Z,18.08
2022-07-29T00:02:59.752Z,18.10
2022-07-29T00:03:09.878Z,18.10
2022-07-29T00:03:19.661Z,18.10
2022-07-29T00:03:32.827Z,18.10
2022-07-29T00:03:41.547Z,18.06
2022-07-29T00:03:50.294Z,18.07
2022-07-29T00:04:00.256Z,18.08
2022-07-29T00:04:11.641Z,18.09
2022-07-29T00:04:20.725Z,18.07
2022-07-29T00:04:31.626Z,18.07
2022-07-29T00:04:39.656Z,18.07
2022-07-29T00:04:49.552Z,18.09
2022-07-29T00:04:59.828Z,18.08
2022-07-29T00:05:09.562Z,18.08
2022-07-29T00:05:19.974Z,18.08
2022-07-29T00:05:29.586Z,18.08
2022-07-29T00:05:39.693Z,18.07
2022-07-29T00:05:52.207Z,18.07
2022-07-29T00:05:59.569Z,18.04
2022-07-29T00:06:11.512Z,18.04
2022-07-29T00:06:19.583Z,18.04
2022-07-29T00:06:31.512Z,18.04
2022-07-29T00:06:39.543Z,18.03
2022-07-29T00:06:51.688Z,18.04
2022-07-29T00:07:01.493Z,18.03
2022-07-29T00:07:09.541Z,18.04
2022-07-29T00:07:19.562Z,18.05
2022-07-29T00:07:30.163Z,18.05
2022-07-29T00:07:39.531Z,18.04
2022-07-29T00:07:50.152Z,18.05
2022-07-29T00:07:59.576Z,18.05
2022-07-29T00:08:12.542Z,18.06
2022-07-29T00:08:19.554Z,18.03
2022-07-29T00:08:31.516Z,18.05
2022-07-29T00:08:41.483Z,18.05
2022-07-29T00:08:49.736Z,18.06
2022-07-29T00:09:01.986Z,18.07
2022-07-29T00:09:10.614Z,18.07
2022-07-29T00:09:20.142Z,18.09
2022-07-29T00:09:31.683Z,18.09
2022-07-29T00:09:51.328Z,18.09
2022-07-29T00:09:52.654Z,18.06
2022-07-29T00:10:01.176Z,18.08
2022-07-29T00:10:11.153Z,18.09
2022-07-29T00:10:20.794Z,18.09
2022-07-29T00:10:30.865Z,18.10
2022-07-29T00:10:40.814Z,18.11
2022-07-29T00:10:52.825Z,18.11
2022-07-29T00:11:01.113Z,18.10
2022-07-29T00:11:10.882Z,18.12
2022-07-29T00:11:21.085Z,18.13
2022-07-29T00:11:30.777Z,18.12
2022-07-29T00:11:42.765Z,18.13
2022-07-29T00:11:50.804Z,18.11
2022-07-29T00:12:00.813Z,18.13
2022-07-29T00:12:10.791Z,18.12
2022-07-29T00:12:25.360Z,18.12
2022-07-29T00:12:30.794Z,18.08
2022-07-29T00:12:41.362Z,18.10
2022-07-29T00:12:52.737Z,18.11
2022-07-29T00:13:00.815Z,18.11
2022-07-29T00:13:10.969Z,18.12
2022-07-29T00:13:32.114Z,18.07
2022-07-29T00:13:32.128Z,18.11
2022-07-29T00:13:40.785Z,18.08
2022-07-29T00:13:51.274Z,18.10
2022-07-29T00:14:00.926Z,18.08
2022-07-29T00:14:19.367Z,18.08
2022-07-29T00:14:25.395Z,18.02
2022-07-29T00:14:34.439Z,18.04
2022-07-29T00:14:46.225Z,18.05
2022-07-29T00:14:54.222Z,18.01
2022-07-29T00:15:04.254Z,18.03
2022-07-29T00:15:14.234Z,18.03
2022-07-29T00:15:26.626Z,18.01
2022-07-29T00:15:36.383Z,17.99
2022-07-29T00:15:44.325Z,17.98
2022-07-29T00:15:54.377Z,17.99
2022-07-29T00:16:04.903Z,17.98
2022-07-29T00:16:14.609Z,17.96
2022-07-29T00:16:26.378Z,17.97
2022-07-29T00:16:34.678Z,17.94
2022-07-29T00:16:44.412Z,17.95
2022-07-29T00:16:56.285Z,17.94
2022-07-29T00:17:05.758Z,17.93
2022-07-29T00:17:14.295Z,17.93
2022-07-29T00:17:24.316Z,17.89
2022-07-29T00:17:36.283Z,17.92
2022-07-29T00:17:44.297Z,17.90
2022-07-29T00:17:56.246Z,17.92
2022-07-29T00:18:06.270Z,17.90
2022-07-29T00:18:16.465Z,17.90
2022-07-29T00:18:25.267Z,17.90
2022-07-29T00:18:36.266Z,17.91
2022-07-29T00:18:46.227Z,17.89
2022-07-29T00:18:56.226Z,17.89
2022-07-29T00:19:06.386Z,17.89
2022-07-29T00:19:14.303Z,17.86
2022-07-29T00:19:24.303Z,17.88
2022-07-29T00:19:34.747Z,17.88
2022-07-29T00:19:46.327Z,17.89
2022-07-29T00:19:55.125Z,17.88
2022-07-29T00:20:05.071Z,17.90
2022-07-29T00:20:15.420Z,17.89
2022-07-29T00:20:24.267Z,17.89
2022-07-29T00:20:34.316Z,17.90
2022-07-29T00:20:44.292Z,17.90
2022-07-29T00:20:56.247Z,17.90
2022-07-29T00:21:04.410Z,17.89
2022-07-29T00:21:16.227Z,17.91
2022-07-29T00:21:26.228Z,17.90
2022-07-29T00:21:36.212Z,17.91
2022-07-29T00:21:44.715Z,17.92
2022-07-29T00:21:54.847Z,17.94
2022-07-29T00:22:04.247Z,17.95
2022-07-29T00:22:15.744Z,17.96
2022-07-29T00:22:26.248Z,17.94
2022-07-29T00:22:34.649Z,17.95
2022-07-29T00:22:44.248Z,17.98
2022-07-29T00:22:56.277Z,17.99
2022-07-29T00:23:04.238Z,17.98
2022-07-29T00:23:15.058Z,18.01
2022-07-29T00:23:24.563Z,18.00
2022-07-29T00:23:36.830Z,17.97
2022-07-29T00:23:44.786Z,17.96
2022-07-29T00:23:56.197Z,17.98
2022-07-29T00:24:06.188Z,17.99
2022-07-29T00:24:16.553Z,18.00
2022-07-29T00:24:24.488Z,18.00
2022-07-29T00:24:34.936Z,18.03
2022-07-29T00:24:46.473Z,18.02
2022-07-29T00:24:55.118Z,18.02
2022-07-29T00:25:05.839Z,18.03
2022-07-29T00:25:14.605Z,18.01
2022-07-29T00:25:26.409Z,18.03
2022-07-29T00:25:34.490Z,18.02
2022-07-29T00:25:45.364Z,18.03
2022-07-29T00:25:54.742Z,18.02
2022-07-29T00:26:06.409Z,18.04
2022-07-29T00:26:16.451Z,18.04
2022-07-29T00:26:25.911Z,18.04
2022-07-29T00:26:36.399Z,18.05
2022-07-29T00:26:44.458Z,18.04
2022-07-29T00:26:56.715Z,18.07
2022-07-29T00:27:04.468Z,18.05
2022-07-29T00:27:15.470Z,18.07
2022-07-29T00:27:26.417Z,18.06
2022-07-29T00:27:34.548Z,18.05
2022-07-29T00:27:45.149Z,18.08
2022-07-29T00:27:55.196Z,18.07
2022-07-29T00:28:05.370Z,18.07
2022-07-29T00:28:16.422Z,18.06
2022-07-29T00:28:24.450Z,18.06
2022-07-29T00:28:34.479Z,18.07
2022-07-29T00:28:44.472Z,18.06
2022-07-29T00:29:17.217Z,18.06
2022-07-29T00:29:33.559Z,18.00
2022-07-29T00:29:34.232Z,18.00
2022-07-29T00:29:35.445Z,17.99
2022-07-29T00:29:35.490Z,18.02
2022-07-29T00:29:46.813Z,18.01
2022-07-29T00:29:55.200Z,18.01
2022-07-29T00:30:05.803Z,18.03
2022-07-29T00:30:15.267Z,18.01
2022-07-29T00:30:24.870Z,18.01
2022-07-29T00:30:34.860Z,18.01
2022-07-29T00:30:44.860Z,18.00
2022-07-29T00:30:55.601Z,17.99
2022-07-29T00:31:04.944Z,17.98
2022-07-29T00:31:16.863Z,17.97
2022-07-29T00:31:25.085Z,17.96
2022-07-29T00:31:34.888Z,17.97
2022-07-29T00:31:45.354Z,17.97
2022-07-29T00:31:55.990Z,17.96
2022-07-29T00:32:06.787Z,17.95
2022-07-29T00:32:16.829Z,17.94
2022-07-29T00:32:24.831Z,17.94
2022-07-29T00:32:35.351Z,17.95
2022-07-29T00:32:46.785Z,17.93
2022-07-29T00:32:55.956Z,17.92
2022-07-29T00:33:09.038Z,17.92
2022-07-29T00:33:14.819Z,17.89
2022-07-29T00:33:24.850Z,17.91
2022-07-29T00:33:35.600Z,17.91
2022-07-29T00:33:47.889Z,17.91
2022-07-29T00:33:56.992Z,17.87
2022-07-29T00:34:05.811Z,17.89
2022-07-29T00:34:17.591Z,17.90
2022-07-29T00:34:26.982Z,17.87
2022-07-29T00:34:35.476Z,17.89
2022-07-29T00:34:45.367Z,17.90
2022-07-29T00:34:56.993Z,17.90
2022-07-29T00:35:05.161Z,17.89
2022-07-29T00:35:15.284Z,17.91
2022-07-29T00:35:26.974Z,17.90
2022-07-29T00:35:36.993Z,17.88
2022-07-29T00:35:45.590Z,17.89
2022-07-29T00:35:56.991Z,17.90
2022-07-29T00:36:06.001Z,17.88
2022-07-29T00:36:15.052Z,17.89
2022-07-29T00:36:25.020Z,17.90
2022-07-29T00:36:36.993Z,17.88
2022-07-29T00:36:46.982Z,17.86
2022-07-29T00:36:57.001Z,17.86
2022-07-29T00:37:05.788Z,17.85
2022-07-29T00:37:16.974Z,17.82
2022-07-29T00:37:25.042Z,17.82
2022-07-29T00:37:37.032Z,17.85
2022-07-29T00:37:47.054Z,17.84
2022-07-29T00:37:55.012Z,17.84
2022-07-29T00:38:05.382Z,17.86
2022-07-29T00:38:16.942Z,17.85
2022-07-29T00:38:26.962Z,17.84
2022-07-29T00:38:35.012Z,17.84
2022-07-29T00:38:45.163Z,17.85
2022-07-29T00:38:55.033Z,17.84
2022-07-29T00:39:05.023Z,17.85
2022-07-29T00:39:15.155Z,17.84
2022-07-29T00:39:24.993Z,17.84
2022-07-29T00:39:36.054Z,17.82
2022-07-29T00:39:45.312Z,17.83
2022-07-29T00:39:57.208Z,17.83
2022-07-29T00:40:07.153Z,17.82
2022-07-29T00:40:17.172Z,17.84
2022-07-29T00:40:26.652Z,17.83
2022-07-29T00:40:35.211Z,17.84
2022-07-29T00:40:45.221Z,17.84
2022-07-29T00:40:57.165Z,17.84
2022-07-29T00:41:05.287Z,17.83
2022-07-29T00:41:15.226Z,17.84
2022-07-29T00:41:27.258Z,17.85
2022-07-29T00:41:35.198Z,17.82
2022-07-29T00:41:45.272Z,17.84
2022-07-29T00:41:55.216Z,17.84
2022-07-29T00:42:05.255Z,17.83
2022-07-29T00:42:15.277Z,17.82
2022-07-29T00:42:27.596Z,17.82
2022-07-29T00:42:37.278Z,17.81
2022-07-29T00:42:45.458Z,17.81
2022-07-29T00:42:55.277Z,17.82
2022-07-29T00:43:05.306Z,17.81
2022-07-29T00:43:15.484Z,17.80
2022-07-29T00:43:25.277Z,17.79
2022-07-29T00:43:35.288Z,17.79
2022-07-29T00:43:47.357Z,17.79
2022-07-29T00:43:57.238Z,17.78
2022-07-29T00:44:06.379Z,17.78
2022-07-29T00:44:17.509Z,17.79
2022-07-29T00:44:27.344Z,17.79
2022-07-29T00:44:35.387Z,17.80
2022-07-29T00:44:45.387Z,17.81
2022-07-29T00:44:55.397Z,17.81
2022-07-29T00:45:05.376Z,17.81
2022-07-29T00:45:16.578Z,17.81
2022-07-29T00:45:27.417Z,17.80
2022-07-29T00:45:37.320Z,17.80
2022-07-29T00:45:46.320Z,17.81
2022-07-29T00:45:57.318Z,17.82
2022-07-29T00:46:05.410Z,17.81
2022-07-29T00:46:17.496Z,17.83
2022-07-29T00:46:25.398Z,17.81
2022-07-29T00:46:35.694Z,17.83
2022-07-29T00:46:45.408Z,17.82
2022-07-29T00:46:57.427Z,17.83
2022-07-29T00:47:06.525Z,17.82
2022-07-29T00:47:15.367Z,17.82
2022-07-29T00:47:25.410Z,17.84
2022-07-29T00:47:36.309Z,17.84
2022-07-29T00:47:45.357Z,17.84
2022-07-29T00:47:55.556Z,17.85
2022-07-29T00:48:05.360Z,17.85
2022-07-29T00:48:15.390Z,17.85
2022-07-29T00:48:25.347Z,17.84
2022-07-29T00:48:36.132Z,17.84
2022-07-29T00:48:45.378Z,17.84
2022-07-29T00:48:55.659Z,17.85
2022-07-29T00:49:07.322Z,17.85
2022-07-29T00:49:15.710Z,17.84
2022-07-29T00:49:27.434Z,17.87
2022-07-29T00:49:36.940Z,17.85
2022-07-29T00:49:47.283Z,17.85
2022-07-29T00:49:57.375Z,17.84
2022-07-29T00:50:05.558Z,17.85
2022-07-29T00:50:17.271Z,17.86
2022-07-29T00:50:25.489Z,17.85
2022-07-29T00:50:37.777Z,17.85
2022-07-29T00:50:45.459Z,17.84
2022-07-29T00:50:55.487Z,17.86
2022-07-29T00:51:05.469Z,17.84
2022-07-29T00:51:15.481Z,17.84
2022-07-29T00:51:25.650Z,17.83
2022-07-29T00:51:37.399Z,17.83
2022-07-29T00:51:45.689Z,17.84
2022-07-29T00:51:57.420Z,17.84
2022-07-29T00:52:05.901Z,17.84
2022-07-29T00:52:17.027Z,17.85
2022-07-29T00:52:25.461Z,17.84
2022-07-29T00:52:37.454Z,17.86
2022-07-29T00:52:46.375Z,17.85
2022-07-29T00:52:57.406Z,17.85
2022-07-29T00:53:05.900Z,17.85
2022-07-29T00:53:15.952Z,17.86
2022-07-29T00:53:25.970Z,17.85
2022-07-29T00:53:35.449Z,17.85
2022-07-29T00:53:45.952Z,17.85
2022-07-29T00:53:57.398Z,17.84
2022-07-29T00:54:05.434Z,17.83
2022-07-29T00:54:16.766Z,17.84
2022-07-29T00:54:27.846Z,17.83
2022-07-29T00:54:35.662Z,17.83
2022-07-29T00:54:45.951Z,17.80
2022-07-29T00:54:55.991Z,17.82
2022-07-29T00:55:08.610Z,17.82
2022-07-29T00:55:15.960Z,17.80
2022-07-29T00:55:25.780Z,17.80
2022-07-29T00:55:36.021Z,17.81
2022-07-29T00:55:48.088Z,17.80
2022-07-29T00:55:57.748Z,17.79
2022-07-29T00:56:06.037Z,17.80
2022-07-29T00:56:17.763Z,17.82
2022-07-29T00:56:25.782Z,17.81
2022-07-29T00:56:35.790Z,17.82
2022-07-29T00:56:46.371Z,17.82
2022-07-29T00:56:55.758Z,17.81
2022-07-29T00:57:06.515Z,17.82
2022-07-29T00:57:15.970Z,17.81
2022-07-29T00:57:25.997Z,17.82
2022-07-29T00:57:36.096Z,17.82
2022-07-29T00:57:45.969Z,17.81
2022-07-29T00:57:57.709Z,17.81
2022-07-29T00:58:06.038Z,17.80
2022-07-29T00:58:16.045Z,17.81
2022-07-29T00:58:26.008Z,17.80
2022-07-29T00:58:36.045Z,17.80
2022-07-29T00:58:48.494Z,17.80
2022-07-29T00:58:55.787Z,17.77
2022-07-29T00:59:05.750Z,17.79
2022-07-29T00:59:16.187Z,17.79
2022-07-29T00:59:25.917Z,17.79
2022-07-29T00:59:35.811Z,17.76
2022-07-29T00:59:46.085Z,17.79
2022-07-29T00:59:55.738Z,17.79
2022-07-29T01:00:05.749Z,17.79
2022-07-29T01:00:15.907Z,17.80
2022-07-29T01:00:25.777Z,17.80
2022-07-29T01:00:36.014Z,17.81
2022-07-29T01:00:46.226Z,17.81
2022-07-29T01:00:57.894Z,17.81
2022-07-29T01:01:06.162Z,17.77
2022-07-29T01:01:15.973Z,17.79
2022-07-29T01:01:27.716Z,17.80
2022-07-29T01:01:36.172Z,17.81
2022-07-29T01:01:45.744Z,17.82
2022-07-29T01:01:56.161Z,17.83
2022-07-29T01:02:05.894Z,17.83
2022-07-29T01:02:16.631Z,17.83
2022-07-29T01:02:25.805Z,17.83
2022-07-29T01:02:35.871Z,17.83
2022-07-29T01:02:45.730Z,17.84
2022-07-29T01:02:55.830Z,17.84
2022-07-29T01:03:05.918Z,17.83
2022-07-29T01:03:15.719Z,17.84
2022-07-29T01:03:26.989Z,17.84
2022-07-29T01:03:37.660Z,17.84
2022-07-29T01:03:45.811Z,17.82
2022-07-29T01:03:55.742Z,17.83
2022-07-29T01:04:05.751Z,17.82
2022-07-29T01:04:16.423Z,17.81
2022-07-29T01:04:28.038Z,17.79
2022-07-29T01:04:35.765Z,17.78
2022-07-29T01:04:45.961Z,17.80
2022-07-29T01:04:55.771Z,17.78
2022-07-29T01:05:07.732Z,17.78
2022-07-29T01:05:17.721Z,17.76
2022-07-29T01:05:48.458Z,17.71
2022-07-29T01:05:50.244Z,17.76
2022-07-29T01:05:51.540Z,17.70
2022-07-29T01:05:58.875Z,17.68
2022-07-29T01:06:07.358Z,17.71
2022-07-29T01:06:17.880Z,17.72
2022-07-29T01:06:28.608Z,17.71
2022-07-29T01:06:39.301Z,17.70
2022-07-29T01:06:48.841Z,17.69
2022-07-29T01:06:57.342Z,17.69
2022-07-29T01:07:07.839Z,17.70
2022-07-29T01:07:17.373Z,17.68
2022-07-29T01:07:29.361Z,17.67
2022-07-29T01:07:39.094Z,17.66
2022-07-29T01:07:49.340Z,17.66
2022-07-29T01:07:57.652Z,17.66
2022-07-29T01:08:07.338Z,17.68
2022-07-29T01:08:19.305Z,17.67
2022-07-29T01:08:28.909Z,17.67
2022-07-29T01:08:39.540Z,17.67
2022-07-29T01:08:49.272Z,17.67
2022-07-29T01:08:58.386Z,17.68
2022-07-29T01:09:09.312Z,17.69
2022-07-29T01:09:17.476Z,17.68
2022-07-29T01:09:42.825Z,17.67
2022-07-29T01:09:45.774Z,17.65
2022-07-29T01:09:52.479Z,17.65
2022-07-29T01:10:00.724Z,17.68
2022-07-29T01:10:12.684Z,17.71
2022-07-29T01:10:20.723Z,17.70
2022-07-29T01:10:30.734Z,17.72
2022-07-29T01:10:41.515Z,17.72
2022-07-29T01:10:52.686Z,17.71
2022-07-29T01:11:00.934Z,17.70
2022-07-29T01:11:10.717Z,17.71
2022-07-29T01:11:22.675Z,17.69
2022-07-29T01:11:30.840Z,17.68
2022-07-29T01:11:40.747Z,17.69
2022-07-29T01:11:50.865Z,17.69
2022-07-29T01:12:01.217Z,17.69
2022-07-29T01:12:10.757Z,17.69
2022-07-29T01:12:21.291Z,17.69
2022-07-29T01:12:31.225Z,17.68
2022-07-29T01:12:40.746Z,17.68
2022-07-29T01:12:51.295Z,17.67
2022-07-29T01:13:01.228Z,17.68
2022-07-29T01:13:10.745Z,17.68
2022-07-29T01:13:21.297Z,17.68
2022-07-29T01:13:31.367Z,17.68
2022-07-29T01:13:40.685Z,17.68
2022-07-29T01:14:28.271Z,17.56
2022-07-29T01:14:38.136Z,17.59
2022-07-29T01:14:48.063Z,17.61
2022-07-29T01:14:58.454Z,17.62
2022-07-29T01:15:10.009Z,17.62
2022-07-29T01:15:20.013Z,17.62
2022-07-29T01:15:28.061Z,17.62
2022-07-29T01:15:40.004Z,17.63
2022-07-29T01:15:50.006Z,17.58
2022-07-29T01:15:59.614Z,17.61
2022-07-29T01:16:09.728Z,17.62
2022-07-29T01:16:20.738Z,17.62
2022-07-29T01:16:30.466Z,17.61
2022-07-29T01:16:39.629Z,17.62
2022-07-29T01:16:49.893Z,17.62
2022-07-29T01:17:01.525Z,17.61
2022-07-29T01:17:09.613Z,17.61
2022-07-29T01:17:19.832Z,17.61
2022-07-29T01:17:29.584Z,17.61
2022-07-29T01:17:41.545Z,17.61
2022-07-29T01:17:53.705Z,17.55
2022-07-29T01:18:01.191Z,17.54
2022-07-29T01:18:13.095Z,17.57
2022-07-29T01:18:24.636Z,17.52
2022-07-29T01:18:32.743Z,17.56
2022-07-29T01:18:44.654Z,17.57
2022-07-29T01:18:53.082Z,17.58
2022-07-29T01:19:02.939Z,17.58
2022-07-29T01:19:13.563Z,17.59
2022-07-29T01:19:24.645Z,17.59
2022-07-29T01:19:32.688Z,17.59
2022-07-29T01:19:42.853Z,17.60
2022-07-29T01:19:53.480Z,17.59
2022-07-29T01:20:02.686Z,17.58
2022-07-29T01:20:14.666Z,17.59
2022-07-29T01:20:24.134Z,17.58
2022-07-29T01:20:35.844Z,17.54
2022-07-29T01:20:45.685Z,17.55
2022-07-29T01:20:55.664Z,17.55
2022-07-29T01:21:04.423Z,17.55
2022-07-29T01:21:15.710Z,17.57
2022-07-29T01:21:25.676Z,17.54
2022-07-29T01:21:33.774Z,17.55
2022-07-29T01:21:43.753Z,17.56
2022-07-29T01:21:53.735Z,17.55
2022-07-29T01:22:05.676Z,17.55
2022-07-29T01:22:13.716Z,17.54
2022-07-29T01:22:25.765Z,17.55
2022-07-29T01:22:33.744Z,17.54
2022-07-29T01:22:43.796Z,17.56
2022-07-29T01:22:55.653Z,17.55
2022-07-29T01:23:03.983Z,17.53
2022-07-29T01:23:14.693Z,17.55
2022-07-29T01:23:24.916Z,17.55
2022-07-29T01:23:33.783Z,17.54
2022-07-29T01:23:45.665Z,17.55
2022-07-29T01:23:53.745Z,17.53
2022-07-29T01:24:05.654Z,17.55
2022-07-29T01:24:15.966Z,17.53
2022-07-29T01:24:25.796Z,17.52
2022-07-29T01:24:35.786Z,17.53
2022-07-29T01:24:45.795Z,17.53
2022-07-29T01:24:53.846Z,17.54
2022-07-29T01:25:03.867Z,17.55
2022-07-29T01:25:13.911Z,17.55
2022-07-29T01:25:23.856Z,17.56
2022-07-29T01:25:33.971Z,17.56
2022-07-29T01:25:44.428Z,17.55
2022-07-29T01:25:55.757Z,17.57
2022-07-29T01:26:05.951Z,17.56
2022-07-29T01:26:15.987Z,17.58
2022-07-29T01:26:25.246Z,17.53
2022-07-29T01:26:35.328Z,17.57
2022-07-29T01:26:45.245Z,17.57
2022-07-29T01:26:57.195Z,17.59
2022-07-29T01:27:06.828Z,17.59
2022-07-29T01:27:18.098Z,17.57
2022-07-29T01:27:25.295Z,17.56
2022-07-29T01:27:37.178Z,17.59
2022-07-29T01:27:47.248Z,17.56
2022-07-29T01:27:55.342Z,17.58
2022-07-29T01:28:05.256Z,17.60
2022-07-29T01:28:15.215Z,17.61
2022-07-29T01:28:25.436Z,17.61
2022-07-29T01:28:37.195Z,17.59
2022-07-29T01:28:45.378Z,17.56
2022-07-29T01:28:57.167Z,17.59
2022-07-29T01:29:08.261Z,17.60
2022-07-29T01:29:16.427Z,17.56
2022-07-29T01:29:29.855Z,17.55
2022-07-29T01:29:40.314Z,17.53
2022-07-29T01:29:49.679Z,17.53
2022-07-29T01:29:58.322Z,17.53
2022-07-29T01:30:09.768Z,17.57
2022-07-29T01:30:18.268Z,17.58
2022-07-29T01:30:29.578Z,17.60
2022-07-29T01:30:37.642Z,17.55
2022-07-29T01:30:47.738Z,17.59
2022-07-29T01:30:59.641Z,17.60
2022-07-29T01:31:09.118Z,17.60
2022-07-29T01:31:23.743Z,17.57
2022-07-29T01:31:28.851Z,17.55
2022-07-29T01:31:40.338Z,17.58
2022-07-29T01:31:59.562Z,17.57
2022-07-29T01:32:01.134Z,17.56
2022-07-29T01:32:18.048Z,17.59
2022-07-29T01:32:28.685Z,17.57
2022-07-29T01:32:31.537Z,17.56
2022-07-29T01:32:40.659Z,17.60
2022-07-29T01:32:52.590Z,17.61
2022-07-29T01:33:00.803Z,17.61
2022-07-29T01:33:10.821Z,17.63
2022-07-29T01:33:22.577Z,17.64
2022-07-29T01:33:30.757Z,17.64
2022-07-29T01:33:40.631Z,17.66
2022-07-29T01:33:52.586Z,17.66
2022-07-29T01:34:02.621Z,17.65
2022-07-29T01:34:10.622Z,17.66
2022-07-29T01:34:23.459Z,17.67
2022-07-29T01:34:30.937Z,17.64
2022-07-29T01:34:42.568Z,17.65
2022-07-29T01:34:52.138Z,17.65
2022-07-29T01:35:00.649Z,17.66
2022-07-29T01:35:10.670Z,17.68
2022-07-29T01:35:22.707Z,17.67
2022-07-29T01:35:32.573Z,17.66
2022-07-29T01:35:40.631Z,17.67
2022-07-29T01:35:52.570Z,17.68
2022-07-29T01:36:00.892Z,17.68
2022-07-29T01:36:12.562Z,17.69
2022-07-29T01:36:20.990Z,17.67
2022-07-29T01:36:30.608Z,17.68
2022-07-29T01:36:41.595Z,17.68
2022-07-29T01:36:51.031Z,17.67
2022-07-29T01:37:00.609Z,17.68
2022-07-29T01:37:11.430Z,17.68
2022-07-29T01:37:20.725Z,17.67
2022-07-29T01:37:30.608Z,17.66
2022-07-29T01:37:42.694Z,17.66
2022-07-29T01:37:52.761Z,17.65
2022-07-29T01:38:00.749Z,17.64
2022-07-29T01:38:10.719Z,17.66
2022-07-29T01:38:20.583Z,17.65
2022-07-29T01:38:30.610Z,17.65
2022-07-29T01:38:40.609Z,17.65
2022-07-29T01:38:50.647Z,17.66
2022-07-29T01:39:01.055Z,17.66
2022-07-29T01:39:11.617Z,17.66
2022-07-29T01:39:20.580Z,17.65
2022-07-29T01:39:30.600Z,17.66
2022-07-29T01:39:42.540Z,17.63
2022-07-29T01:39:52.533Z,17.63
2022-07-29T01:40:00.732Z,17.64
2022-07-29T01:40:10.572Z,17.66
2022-07-29T01:40:20.872Z,17.65
2022-07-29T01:40:30.571Z,17.63
2022-07-29T01:40:42.560Z,17.62
2022-07-29T01:40:50.709Z,17.61
2022-07-29T01:41:00.592Z,17.63
2022-07-29T01:41:12.549Z,17.61
2022-07-29T01:41:20.600Z,17.59
2022-07-29T01:41:30.560Z,17.60
2022-07-29T01:41:40.649Z,17.59
2022-07-29T01:41:50.821Z,17.59
2022-07-29T01:42:00.750Z,17.58
2022-07-29T01:42:10.651Z,17.58
2022-07-29T01:42:22.570Z,17.59
2022-07-29T01:42:30.569Z,17.57
2022-07-29T01:42:40.760Z,17.59
2022-07-29T01:42:50.681Z,17.59
2022-07-29T01:43:02.361Z,17.59
2022-07-29T01:43:11.856Z,17.57
2022-07-29T01:43:20.689Z,17.57
2022-07-29T01:43:30.725Z,17.57
2022-07-29T01:43:40.661Z,17.56
2022-07-29T01:43:50.790Z,17.56
2022-07-29T01:44:01.561Z,17.55
2022-07-29T01:44:10.672Z,17.55
2022-07-29T01:44:20.923Z,17.55
2022-07-29T01:44:30.559Z,17.55
2022-07-29T01:44:40.774Z,17.55
2022-07-29T01:44:50.551Z,17.54
2022-07-29T01:45:01.067Z,17.55
2022-07-29T01:45:10.573Z,17.53
2022-07-29T01:45:22.512Z,17.54
2022-07-29T01:45:30.582Z,17.52
2022-07-29T01:45:40.701Z,17.54
2022-07-29T01:45:50.614Z,17.53
2022-07-29T01:46:02.539Z,17.52
2022-07-29T01:46:10.624Z,17.51
2022-07-29T01:46:22.525Z,17.52
2022-07-29T01:46:30.743Z,17.50
2022-07-29T01:46:40.613Z,17.52
2022-07-29T01:46:51.508Z,17.51
2022-07-29T01:47:00.667Z,17.51
2022-07-29T01:47:10.999Z,17.52
2022-07-29T01:47:20.688Z,17.50
2022-07-29T01:47:30.780Z,17.49
2022-07-29T01:47:40.581Z,17.49
2022-07-29T01:47:52.483Z,17.48
2022-07-29T01:48:00.752Z,17.47
2022-07-29T01:48:12.274Z,17.47
2022-07-29T01:48:20.954Z,17.46
2022-07-29T01:48:31.708Z,17.46
2022-07-29T01:48:40.788Z,17.45
2022-07-29T01:48:52.531Z,17.45
2022-07-29T01:49:00.740Z,17.42
2022-07-29T01:49:11.483Z,17.42
2022-07-29T01:49:21.628Z,17.40
2022-07-29T01:49:32.495Z,17.39
2022-07-29T01:49:41.357Z,17.38
2022-07-29T01:49:50.544Z,17.38
2022-07-29T01:50:00.536Z,17.38
2022-07-29T01:50:10.979Z,17.38
2022-07-29T01:50:22.454Z,17.37
2022-07-29T01:50:30.612Z,17.36
2022-07-29T01:50:40.532Z,17.38
2022-07-29T01:50:52.070Z,17.36
2022-07-29T01:51:00.501Z,17.35
2022-07-29T01:51:13.615Z,17.36
2022-07-29T01:51:23.311Z,17.30
2022-07-29T01:51:35.176Z,17.34
2022-07-29T01:51:44.763Z,17.34
2022-07-29T01:51:54.123Z,17.35
2022-07-29T01:52:03.193Z,17.35
2022-07-29T01:52:13.506Z,17.36
2022-07-29T01:52:23.205Z,17.34
2022-07-29T01:52:34.163Z,17.36
2022-07-29T01:52:44.648Z,17.35
2022-07-29T01:52:53.269Z,17.34
2022-07-29T01:53:03.241Z,17.35
2022-07-29T01:53:13.292Z,17.35
2022-07-29T01:53:23.211Z,17.35
2022-07-29T01:53:36.452Z,17.34
2022-07-29T01:53:43.265Z,17.30
2022-07-29T01:53:53.451Z,17.32
2022-07-29T01:54:03.495Z,17.31
2022-07-29T01:54:15.410Z,17.31
2022-07-29T01:54:24.601Z,17.29
2022-07-29T01:54:34.319Z,17.30
2022-07-29T01:54:46.686Z,17.32
2022-07-29T01:54:53.415Z,17.28
2022-07-29T01:55:03.325Z,17.30
2022-07-29T01:55:15.479Z,17.30
2022-07-29T01:55:25.334Z,17.29
2022-07-29T01:55:34.859Z,17.29
2022-07-29T01:55:43.394Z,17.31
2022-07-29T01:55:55.364Z,17.32
2022-07-29T01:56:03.736Z,17.27
2022-07-29T01:56:13.745Z,17.30
2022-07-29T01:56:24.565Z,17.30
2022-07-29T01:56:33.861Z,17.30
2022-07-29T01:56:43.717Z,17.31
2022-07-29T01:56:55.673Z,17.31
2022-07-29T01:57:04.715Z,17.30
2022-07-29T01:57:13.706Z,17.31
2022-07-29T01:57:23.946Z,17.31
2022-07-29T01:57:35.647Z,17.30
2022-07-29T01:57:44.145Z,17.28
2022-07-29T01:57:53.756Z,17.30
2022-07-29T01:58:03.728Z,17.29
2022-07-29T01:58:14.435Z,17.29
2022-07-29T01:58:24.175Z,17.28
2022-07-29T01:58:33.696Z,17.28
2022-07-29T01:58:43.704Z,17.28
2022-07-29T01:58:54.477Z,17.28
2022-07-29T01:59:05.626Z,17.27
2022-07-29T01:59:13.708Z,17.27
2022-07-29T01:59:23.707Z,17.28
2022-07-29T01:59:35.659Z,17.26
2022-07-29T01:59:44.549Z,17.23
2022-07-29T01:59:54.486Z,17.23
2022-07-29T02:00:04.207Z,17.24
2022-07-29T02:00:13.686Z,17.24
2022-07-29T02:00:24.493Z,17.24
2022-07-29T02:00:34.517Z,17.22
2022-07-29T02:00:44.015Z,17.22
2022-07-29T02:00:54.600Z,17.22
2022-07-29T02:01:05.618Z,17.21
2022-07-29T02:01:15.645Z,17.20
2022-07-29T02:01:24.629Z,17.20
2022-07-29T02:01:35.734Z,17.20
2022-07-29T02:01:43.763Z,17.18
2022-07-29T02:01:55.702Z,17.20
2022-07-29T02:02:04.358Z,17.19
2022-07-29T02:02:13.741Z,17.20
2022-07-29T02:02:23.715Z,17.20
2022-07-29T02:02:33.695Z,17.20
2022-07-29T02:02:45.126Z,17.20
2022-07-29T02:02:53.696Z,17.19
2022-07-29T02:03:03.667Z,17.21
2022-07-29T02:03:13.785Z,17.21
2022-07-29T02:03:23.688Z,17.21
2022-07-29T02:03:35.629Z,17.21
2022-07-29T02:03:43.671Z,17.20
2022-07-29T02:03:53.693Z,17.22
2022-07-29T02:04:03.662Z,17.22
2022-07-29T02:04:26.658Z,17.21
2022-07-29T02:04:30.033Z,17.17
2022-07-29T02:04:35.242Z,17.16
2022-07-29T02:04:47.235Z,17.19
2022-07-29T02:04:55.218Z,17.19
2022-07-29T02:05:05.254Z,17.21
2022-07-29T02:05:16.078Z,17.20
2022-07-29T02:05:27.263Z,17.20
2022-07-29T02:05:35.239Z,17.19
2022-07-29T02:05:45.242Z,17.20
2022-07-29T02:05:55.964Z,17.20
2022-07-29T02:06:05.209Z,17.19
2022-07-29T02:06:15.205Z,17.18
2022-07-29T02:06:27.167Z,17.19
2022-07-29T02:06:36.648Z,17.18
2022-07-29T02:06:47.140Z,17.19
2022-07-29T02:06:57.141Z,17.18
2022-07-29T02:07:05.180Z,17.18
2022-07-29T02:07:15.187Z,17.21
2022-07-29T02:07:25.232Z,17.20
2022-07-29T02:07:37.128Z,17.20
2022-07-29T02:07:46.628Z,17.20
2022-07-29T02:07:55.189Z,17.21
2022-07-29T02:08:07.132Z,17.21
2022-07-29T02:08:17.171Z,17.21
2022-07-29T02:08:25.228Z,17.22
2022-07-29T02:08:37.130Z,17.23
2022-07-29T02:08:46.640Z,17.21
2022-07-29T02:08:55.242Z,17.22
2022-07-29T02:09:07.159Z,17.22
2022-07-29T02:09:15.342Z,17.19
2022-07-29T02:09:27.123Z,17.21
2022-07-29T02:09:35.168Z,17.21
2022-07-29T02:09:46.100Z,17.22
2022-07-29T02:09:55.219Z,17.22